createdAt,value
2023-05-12T00:02:06.638Z,68.90
2023-05-12T00:07:10.531Z,69.10
2023-05-12T00:12:15.456Z,69.20
2023-05-12T00:17:19.180Z,69.30
2023-05-12T00:22:22.748Z,69.50
2023-05-12T00:27:27.403Z,69.60
2023-05-12T00:32:31.647Z,69.70
2023-05-12T00:37:35.341Z,70.20
2023-05-12T00:42:40.551Z,69.90
2023-05-12T00:47:44.230Z,69.90
2023-05-12T00:52:48.426Z,70.20
2023-05-12T00:57:53.689Z,70.20
2023-05-12T01:02:58.646Z,70.50
2023-05-12T01:08:05.248Z,70.60
2023-05-12T01:13:10.376Z,70.80
2023-05-12T01:18:16.423Z,70.90
2023-05-12T01:23:21.662Z,70.90
2023-05-12T01:28:26.314Z,71.00
2023-05-12T01:33:30.656Z,71.10
2023-05-12T01:38:34.539Z,71.30
2023-05-12T01:43:39.775Z,71.50
2023-05-12T01:48:44.512Z,71.70
2023-05-12T01:53:47.917Z,71.90
2023-05-12T01:58:52.814Z,72.10
2023-05-12T02:03:57.153Z,72.20
2023-05-12T02:09:02.847Z,72.50
2023-05-12T02:14:08.134Z,72.50
2023-05-12T02:19:11.729Z,73.00
2023-05-12T02:24:16.520Z,73.60
2023-05-12T02:29:21.703Z,74.00
2023-05-12T02:34:25.560Z,74.40
2023-05-12T02:39:29.348Z,74.40
2023-05-12T02:44:34.923Z,74.40
2023-05-12T02:49:38.526Z,74.40
2023-05-12T02:54:42.000Z,74.20
2023-05-12T02:59:46.627Z,74.20
2023-05-12T03:04:49.909Z,74.40
2023-05-12T03:09:53.208Z,74.40
2023-05-12T03:14:59.335Z,74.40
2023-05-12T03:20:03.160Z,74.50
2023-05-12T03:25:08.355Z,74.80
2023-05-12T03:30:15.106Z,74.90
2023-05-12T03:35:18.860Z,74.90
2023-05-12T03:40:23.019Z,75.10
2023-05-12T03:45:28.477Z,75.30
2023-05-12T03:50:32.088Z,75.60
2023-05-12T03:55:36.632Z,75.80
2023-05-12T04:00:42.142Z,75.90
2023-05-12T04:05:45.374Z,76.10
2023-05-12T04:10:48.546Z,76.80
2023-05-12T04:15:55.970Z,76.50
2023-05-12T04:20:59.922Z,76.80
2023-05-12T04:26:05.671Z,76.90
2023-05-12T04:31:10.313Z,77.00
2023-05-12T04:36:14.854Z,77.10
2023-05-12T04:41:18.302Z,77.30
2023-05-12T04:46:23.204Z,77.20
2023-05-12T04:51:26.669Z,77.30
2023-05-12T04:56:30.246Z,77.20
2023-05-12T05:01:35.172Z,77.10
2023-05-12T05:06:39.310Z,77.10
2023-05-12T05:11:43.556Z,77.20
2023-05-12T05:16:48.647Z,77.10
2023-05-12T05:21:52.276Z,76.90
2023-05-12T05:26:55.963Z,76.50
2023-05-12T05:32:00.970Z,76.20
2023-05-12T05:37:04.834Z,75.80
2023-05-12T05:42:08.887Z,75.50
2023-05-12T05:47:13.721Z,75.10
2023-05-12T05:52:17.698Z,74.60
2023-05-12T05:57:21.322Z,73.90
2023-05-12T06:02:27.038Z,73.30
2023-05-12T06:07:30.504Z,72.80
2023-05-12T06:12:34.262Z,71.90
2023-05-12T06:17:39.618Z,71.70
2023-05-12T06:22:44.345Z,71.30
2023-05-12T06:27:47.565Z,70.50
2023-05-12T06:32:52.816Z,69.90
2023-05-12T06:37:56.446Z,69.40
2023-05-12T06:43:00.096Z,68.50
2023-05-12T06:48:06.437Z,67.80
2023-05-12T06:53:10.221Z,67.20
2023-05-12T06:58:13.909Z,66.80
2023-05-12T07:03:18.942Z,66.60
2023-05-12T07:08:22.489Z,66.40
2023-05-12T07:13:26.114Z,65.80
2023-05-12T07:18:32.100Z,65.10
2023-05-12T07:23:36.218Z,64.90
2023-05-12T07:28:39.849Z,64.20
2023-05-12T07:33:44.921Z,63.60
2023-05-12T07:38:48.739Z,63.20
2023-05-12T07:43:52.024Z,62.60
2023-05-12T07:48:57.744Z,62.40
2023-05-12T07:54:02.101Z,62.10
2023-05-12T07:59:06.698Z,61.60
2023-05-12T08:04:12.069Z,61.40
2023-05-12T08:09:15.402Z,61.10
2023-05-12T08:14:18.620Z,60.40
2023-05-12T08:19:23.537Z,59.30
2023-05-12T08:24:27.792Z,58.60
2023-05-12T08:29:31.415Z,57.60
2023-05-12T08:34:36.594Z,56.80
2023-05-12T08:39:40.442Z,56.10
2023-05-12T08:44:43.988Z,55.20
2023-05-12T08:49:56.069Z,54.70
2023-05-12T08:55:01.072Z,54.10
2023-05-12T09:00:09.166Z,53.40
2023-05-12T09:05:17.285Z,53.20
2023-05-12T09:10:33.509Z,52.90
2023-05-12T09:15:47.375Z,52.60
2023-05-12T09:20:52.512Z,52.10
2023-05-12T09:26:01.705Z,52.10
2023-05-12T09:31:16.970Z,52.00
2023-05-12T09:36:22.252Z,52.00
2023-05-12T09:41:26.214Z,52.10
2023-05-12T09:46:30.018Z,51.60
2023-05-12T09:51:35.519Z,51.70
2023-05-12T09:56:39.969Z,51.80
2023-05-12T10:01:44.068Z,51.60
2023-05-12T10:06:49.848Z,51.60
2023-05-12T10:11:54.106Z,51.50
2023-05-12T10:16:58.713Z,51.20
2023-05-12T10:22:04.127Z,51.10
2023-05-12T10:27:08.712Z,51.00
2023-05-12T10:32:12.894Z,50.50
2023-05-12T10:37:18.194Z,50.30
2023-05-12T10:42:25.814Z,50.10
2023-05-12T10:47:38.824Z,49.70
2023-05-12T10:52:55.160Z,49.40
2023-05-12T10:58:06.689Z,49.30
2023-05-12T11:03:15.861Z,49.40
2023-05-12T11:08:23.125Z,49.40
2023-05-12T11:13:27.248Z,49.30
2023-05-12T11:18:30.970Z,49.10
2023-05-12T11:23:36.037Z,48.90
2023-05-12T11:28:42.410Z,48.70
2023-05-12T11:33:46.200Z,49.00
2023-05-12T11:38:54.150Z,48.60
2023-05-12T11:43:57.806Z,48.70
2023-05-12T11:49:02.145Z,47.80
2023-05-12T11:54:09.432Z,47.10
2023-05-12T11:59:13.106Z,46.60
2023-05-12T12:04:16.881Z,46.40
2023-05-12T12:09:32.460Z,46.10
2023-05-12T12:14:38.394Z,45.80
2023-05-12T12:19:42.042Z,45.70
2023-05-12T12:24:47.153Z,45.20
2023-05-12T12:29:51.133Z,45.00
2023-05-12T12:34:54.557Z,44.60
2023-05-12T12:39:59.482Z,44.50
2023-05-12T12:45:03.583Z,44.20
2023-05-12T12:50:10.347Z,43.60
2023-05-12T12:55:15.047Z,42.90
2023-05-12T13:00:19.799Z,42.30
2023-05-12T13:05:23.497Z,41.70
2023-05-12T13:10:29.047Z,41.60
2023-05-12T13:15:33.590Z,41.60
2023-05-12T13:20:37.493Z,41.50
2023-05-12T13:25:44.563Z,41.60
2023-05-12T13:30:48.252Z,41.60
2023-05-12T13:35:51.938Z,41.40
2023-05-12T13:40:57.075Z,41.30
2023-05-12T13:46:00.758Z,41.30
2023-05-12T13:51:04.621Z,41.30
2023-05-12T13:56:10.545Z,41.60
2023-05-12T14:01:14.478Z,41.80
2023-05-12T14:06:18.091Z,42.50
2023-05-12T14:11:22.988Z,42.90
2023-05-12T14:16:26.642Z,43.20
2023-05-12T14:21:30.362Z,42.90
2023-05-12T14:26:35.365Z,42.80
2023-05-12T14:31:39.018Z,42.90
2023-05-12T14:36:42.550Z,43.00
2023-05-12T14:41:47.597Z,42.70
2023-05-12T14:46:50.850Z,43.20
2023-05-12T14:51:54.092Z,43.60
2023-05-12T14:56:58.672Z,44.10
2023-05-12T15:02:01.931Z,44.10
2023-05-12T15:07:06.106Z,43.90
2023-05-12T15:12:11.829Z,43.60
2023-05-12T15:17:15.361Z,43.30
2023-05-12T15:22:19.186Z,43.10
2023-05-12T15:27:24.345Z,42.10
2023-05-12T15:32:27.682Z,42.40
2023-05-12T15:37:30.947Z,43.10
2023-05-12T15:42:35.889Z,43.70
2023-05-12T15:47:39.667Z,43.90
2023-05-12T15:52:43.301Z,44.30
2023-05-12T15:57:48.465Z,44.40
2023-05-12T16:02:52.108Z,44.50
2023-05-12T16:07:55.757Z,44.70
2023-05-12T16:13:00.799Z,44.70
2023-05-12T16:18:05.945Z,44.20
2023-05-12T16:23:11.121Z,43.20
2023-05-12T16:28:16.045Z,41.80
2023-05-12T16:33:19.815Z,41.70
2023-05-12T16:38:23.145Z,42.10
2023-05-12T16:43:27.758Z,42.60
2023-05-12T16:48:34.745Z,43.00
2023-05-12T16:53:38.805Z,43.50
2023-05-12T16:58:44.370Z,43.70
2023-05-12T17:03:48.165Z,43.70
2023-05-12T17:08:52.048Z,43.60
2023-05-12T17:13:57.112Z,43.10
2023-05-12T17:24:08.181Z,47.50
2023-05-12T17:29:12.809Z,69.50
2023-05-12T17:34:16.613Z,90.70
2023-05-12T17:39:20.531Z,98.70
2023-05-12T17:44:25.489Z,99.90
2023-05-12T17:49:29.246Z,99.90
2023-05-12T17:54:33.027Z,99.90
2023-05-12T17:59:38.059Z,99.90
2023-05-12T18:04:41.644Z,99.90
2023-05-12T18:09:45.004Z,99.90
2023-05-12T18:14:50.468Z,99.90
2023-05-12T18:19:53.691Z,99.90
2023-05-12T18:24:57.038Z,99.90
2023-05-12T18:30:02.084Z,99.90
2023-05-12T18:35:06.165Z,99.90
2023-05-12T18:40:10.373Z,96.20
2023-05-12T18:45:15.722Z,91.80
2023-05-12T18:50:19.337Z,86.60
2023-05-12T18:55:23.086Z,81.70
2023-05-12T19:00:31.894Z,78.50
2023-05-12T19:05:35.324Z,76.60
2023-05-12T19:10:39.988Z,75.70
2023-05-12T19:15:45.298Z,74.50
2023-05-12T19:20:49.390Z,73.50
2023-05-12T19:25:53.112Z,72.30
2023-05-12T19:30:58.299Z,71.40
2023-05-12T19:36:02.131Z,70.70
2023-05-12T19:41:05.915Z,70.40
2023-05-12T19:46:10.959Z,70.50
2023-05-12T19:51:14.679Z,70.30
2023-05-12T19:56:19.274Z,70.00
2023-05-12T20:01:23.862Z,69.80
2023-05-12T20:06:27.137Z,69.70
2023-05-12T20:11:30.698Z,69.60
2023-05-12T20:16:35.469Z,69.50
2023-05-12T20:21:39.050Z,69.50
2023-05-12T20:26:42.278Z,69.40
2023-05-12T20:31:47.695Z,69.20
2023-05-12T20:36:50.819Z,69.10
2023-05-12T20:41:54.297Z,69.40
2023-05-12T20:46:58.909Z,69.70
2023-05-12T20:52:02.169Z,69.90
2023-05-12T20:57:05.689Z,70.00
2023-05-12T21:02:10.872Z,70.10
2023-05-12T21:07:14.923Z,70.30
2023-05-12T21:12:18.597Z,70.60
2023-05-12T21:17:23.580Z,71.20
2023-05-12T21:22:27.707Z,71.50
2023-05-12T21:27:31.708Z,71.80
2023-05-12T21:32:36.844Z,71.90
2023-05-12T21:37:40.288Z,72.20
2023-05-12T21:42:44.132Z,72.50
2023-05-12T21:47:51.214Z,72.80
2023-05-12T21:52:54.993Z,72.90
2023-05-12T21:57:58.739Z,73.30
2023-05-12T22:03:03.928Z,73.00
2023-05-12T22:08:07.435Z,72.60
2023-05-12T22:13:10.760Z,72.70
2023-05-12T22:18:15.540Z,72.40
2023-05-12T22:23:18.803Z,72.20
2023-05-12T22:28:22.082Z,72.30
2023-05-12T22:33:27.106Z,72.30
2023-05-12T22:38:30.347Z,72.90
2023-05-12T22:43:33.600Z,74.00
2023-05-12T22:48:39.361Z,75.10
2023-05-12T22:53:43.360Z,76.40
2023-05-12T22:58:46.586Z,77.40
2023-05-12T23:03:51.653Z,77.90
2023-05-12T23:08:55.300Z,78.50
2023-05-12T23:13:59.159Z,79.40
2023-05-12T23:19:04.417Z,79.90
2023-05-12T23:24:08.898Z,80.30
2023-05-12T23:29:12.651Z,81.10
2023-05-12T23:34:17.704Z,81.80
2023-05-12T23:39:21.291Z,82.60
2023-05-12T23:44:24.909Z,83.80
2023-05-12T23:49:29.565Z,84.90
2023-05-12T23:54:32.752Z,86.40
2023-05-12T23:59:36.156Z,87.60
